
Distance (Route):
Temperature : 5.7°C
Humidity : 84.6%
Pressure : 0hPa| Receiver | Frames | First received | Last received |
|---|---|---|---|
| LZ4TU-5 | 141 | 2026-08-31 05:26:09 | 2026-08-31 07:08:42 |
| Receiver | Date | Latitude | Longitude | Direction | Speed | Altitude | Climb | Temperature | Humidity | Pressure | Voltage | Killtimer | Uptime | BKT | XDATA |
|---|---|---|---|---|---|---|---|---|---|---|---|---|---|---|---|
| LZ4TU-5 | 2026-08-31 07:08:42 | 43.12912 | 22.17297 | 115° | 13km/h | 3415m | -14.3m/s | 5.7°C | 84.6% | 0hPa | 0V | 00:00:00 | 00:00:00 | 00:00:00 | |
| LZ4TU-5 | 2026-08-31 07:08:36 | 43.12917 | 22.17279 | 110° | 7km/h | 3504m | -14.3m/s | 5.2°C | 81.9% | 0hPa | 0V | 00:00:00 | 00:00:00 | 00:00:00 | |
| LZ4TU-5 | 2026-08-31 07:08:31 | 43.12921 | 22.17269 | 116° | 7km/h | 3577m | -14.4m/s | 4.7°C | 81.5% | 0hPa | 0V | 00:00:00 | 00:00:00 | 00:00:00 | |
| LZ4TU-5 | 2026-08-31 07:08:26 | 43.12926 | 22.17256 | 109° | 9km/h | 3651m | -14.4m/s | 4.3°C | 79.0% | 0hPa | 0V | 00:00:00 | 00:00:00 | 00:00:00 | |
| LZ4TU-5 | 2026-08-31 07:08:21 | 43.12930 | 22.17237 | 120° | 13km/h | 3723m | -14.4m/s | 4.2°C | 72.4% | 0hPa | 0V | 00:00:00 | 00:00:00 | 00:00:00 | |
| LZ4TU-5 | 2026-08-31 07:08:16 | 43.12938 | 22.17216 | 122° | 15km/h | 3786m | -14.4m/s | 3.9°C | 74.1% | 0hPa | 0V | 00:00:00 | 00:00:00 | 00:00:00 | |
| LZ4TU-5 | 2026-08-31 07:08:11 | 43.12947 | 22.17194 | 118° | 15km/h | 3861m | -14.5m/s | 3.4°C | 74.8% | 0hPa | 0V | 00:00:00 | 00:00:00 | 00:00:00 | |
| LZ4TU-5 | 2026-08-31 07:08:01 | 43.12964 | 22.17148 | 113° | 16km/h | 4010m | -14.6m/s | 2.6°C | 67.5% | 0hPa | 0V | 00:00:00 | 00:00:00 | 00:00:00 | |
| LZ4TU-5 | 2026-08-31 07:07:57 | 43.12970 | 22.17126 | 110° | 18km/h | 4070m | -14.7m/s | 2.4°C | 62.7% | 0hPa | 0V | 00:00:00 | 00:00:00 | 00:00:00 | |
| LZ4TU-5 | 2026-08-31 07:07:52 | 43.12976 | 22.17097 | 109° | 18km/h | 4143m | -14.4m/s | 1.9°C | 62.1% | 0hPa | 0V | 00:00:00 | 00:00:00 | 00:00:00 | |
| LZ4TU-5 | 2026-08-31 07:07:48 | 43.12982 | 22.17072 | 111° | 18km/h | 4193m | -14.6m/s | 1.4°C | 63.6% | 0hPa | 0V | 00:00:00 | 00:00:00 | 00:00:00 | |
| LZ4TU-5 | 2026-08-31 07:07:43 | 43.12989 | 22.17043 | 109° | 18km/h | 4268m | -14.7m/s | 0.7°C | 66.7% | 0hPa | 0V | 00:00:00 | 00:00:00 | 00:00:00 | |
| LZ4TU-5 | 2026-08-31 07:07:38 | 43.12996 | 22.17014 | 109° | 18km/h | 4344m | -14.6m/s | 0.1°C | 69.2% | 0hPa | 0V | 00:00:00 | 00:00:00 | 00:00:00 | |
| LZ4TU-5 | 2026-08-31 07:07:33 | 43.13003 | 22.16984 | 108° | 18km/h | 4419m | -14.5m/s | -0.6°C | 70.7% | 0hPa | 0V | 00:00:00 | 00:00:00 | 00:00:00 | |
| LZ4TU-5 | 2026-08-31 07:07:28 | 43.13009 | 22.16954 | 101° | 18km/h | 4494m | -14.6m/s | -1.3°C | 0% | 0hPa | 0V | 00:00:00 | 00:00:00 | 00:00:00 | |
| LZ4TU-5 | 2026-08-31 07:06:29 | 43.13098 | 22.16538 | 108° | 22km/h | 5364m | -14.9m/s | -6.3°C | 40.3% | 0hPa | 0V | 00:00:00 | 00:00:00 | 00:00:00 | |
| LZ4TU-5 | 2026-08-31 07:06:24 | 43.13101 | 22.16502 | 107° | 20km/h | 5440m | -14.8m/s | -7.1°C | 53.2% | 0hPa | 0V | 00:00:00 | 00:00:00 | 00:00:00 | |
| LZ4TU-5 | 2026-08-31 07:03:06 | 43.13827 | 22.15583 | 164° | 26km/h | 8496m | -15.8m/s | -26.0°C | 15.7% | 0hPa | 0V | 00:00:00 | 00:00:00 | 00:00:00 | |
| LZ4TU-5 | 2026-08-31 07:03:01 | 43.13862 | 22.15566 | 159° | 33km/h | 8577m | -16.2m/s | -26.4°C | 0% | 0hPa | 0V | 00:00:00 | 00:00:00 | 00:00:00 | |
| LZ4TU-5 | 2026-08-31 07:01:57 | 43.14419 | 22.15082 | 139° | 49km/h | 9635m | -17.1m/s | -35.5°C | 21.9% | 0hPa | 0V | 00:00:00 | 00:00:00 | 00:00:00 | |
| LZ4TU-5 | 2026-08-31 07:01:52 | 43.14467 | 22.15026 | 143° | 49km/h | 9726m | -17.6m/s | -36.3°C | 23.4% | 0hPa | 0V | 00:00:00 | 00:00:00 | 00:00:00 | |
| LZ4TU-5 | 2026-08-31 07:00:48 | 43.15132 | 22.14245 | 142° | 60km/h | 10881m | -18.7m/s | -46.4°C | 36.1% | 0hPa | 0V | 00:00:00 | 00:00:00 | 00:00:00 | |
| LZ4TU-5 | 2026-08-31 07:00:43 | 43.15188 | 22.14180 | 140° | 58km/h | 10979m | -19.1m/s | -47.3°C | 36.6% | 0hPa | 0V | 00:00:00 | 00:00:00 | 00:00:00 | |
| LZ4TU-5 | 2026-08-31 06:58:12 | 43.17126 | 22.12749 | 108° | 38km/h | 14298m | -25.0m/s | -58.5°C | 3.2% | 0hPa | 0V | 00:00:00 | 00:00:00 | 00:00:00 | |
| LZ4TU-5 | 2026-08-31 06:58:07 | 43.17135 | 22.12680 | 97° | 44km/h | 14425m | -25.0m/s | -58.8°C | 2.9% | 0hPa | 0V | 00:00:00 | 00:00:00 | 00:00:00 | |
| LZ4TU-5 | 2026-08-31 06:51:33 | 43.17337 | 22.11693 | 245° | 15km/h | 30233m | -62.3m/s | -39.4°C | 2.3% | 0hPa | 0V | 00:00:00 | 00:00:00 | 00:00:00 | |
| LZ4TU-5 | 2026-08-31 06:51:28 | 43.17348 | 22.11708 | 232° | 15km/h | 30547m | -62.8m/s | -39.7°C | 2.5% | 0hPa | 0V | 00:00:00 | 00:00:00 | 00:00:00 | |
| LZ4TU-5 | 2026-08-31 06:50:05 | 43.17211 | 22.12358 | 263° | 13km/h | 31255m | 7.9m/s | -39.8°C | 3.2% | 0hPa | 0V | 00:00:00 | 00:00:00 | 00:00:00 | |
| LZ4TU-5 | 2026-08-31 06:50:00 | 43.17222 | 22.12369 | 234° | 26km/h | 31221m | 7.3m/s | -39.4°C | 3.0% | 0hPa | 0V | 00:00:00 | 00:00:00 | 00:00:00 | |
| LZ4TU-5 | 2026-08-31 06:48:36 | 43.17405 | 22.12792 | 0° | 0km/h | 30664m | 5.9m/s | -39.6°C | 2.8% | 0hPa | 0V | 00:00:00 | 00:00:00 | 00:00:00 | |
| LZ4TU-5 | 2026-08-31 06:48:31 | 43.17432 | 22.12788 | 149° | 29km/h | 30629m | 7.6m/s | -39.4°C | 2.8% | 0hPa | 0V | 00:00:00 | 00:00:00 | 00:00:00 | |
| LZ4TU-5 | 2026-08-31 06:47:05 | 43.17534 | 22.13049 | 276° | 22km/h | 30071m | 4.4m/s | -40.2°C | 2.3% | 0hPa | 0V | 00:00:00 | 00:00:00 | 00:00:00 | |
| LZ4TU-5 | 2026-08-31 06:45:50 | 43.17493 | 22.12937 | 161° | 5km/h | 29568m | 7.0m/s | -43.7°C | 0% | 0hPa | 0V | 00:00:00 | 00:00:00 | 00:00:00 | |
| LZ4TU-5 | 2026-08-31 06:45:45 | 43.17511 | 22.12933 | 117° | 9km/h | 29534m | 8.1m/s | -43.8°C | 2.6% | 0hPa | 0V | 00:00:00 | 00:00:00 | 00:00:00 | |
| LZ4TU-5 | 2026-08-31 06:44:23 | 43.17655 | 22.12634 | 49° | 16km/h | 28962m | 6.7m/s | -44.2°C | 2.7% | 0hPa | 0V | 00:00:00 | 00:00:00 | 00:00:00 | |
| LZ4TU-5 | 2026-08-31 06:44:18 | 43.17645 | 22.12619 | 93° | 24km/h | 28925m | 7.8m/s | -44.2°C | 2.8% | 0hPa | 0V | 00:00:00 | 00:00:00 | 00:00:00 | |
| LZ4TU-5 | 2026-08-31 06:42:37 | 43.17537 | 22.12630 | 353° | 4km/h | 28257m | 4.7m/s | -45.1°C | 2.5% | 0hPa | 0V | 00:00:00 | 00:00:00 | 00:00:00 | |
| LZ4TU-5 | 2026-08-31 06:42:32 | 43.17539 | 22.12603 | 129° | 31km/h | 28227m | 3.7m/s | -45.5°C | 2.5% | 0hPa | 0V | 00:00:00 | 00:00:00 | 00:00:00 | |
| LZ4TU-5 | 2026-08-31 06:41:05 | 43.17453 | 22.12608 | 92° | 13km/h | 27671m | 6.4m/s | -45.2°C | 2.5% | 0hPa | 0V | 00:00:00 | 00:00:00 | 00:00:00 | |
| LZ4TU-5 | 2026-08-31 06:41:00 | 43.17456 | 22.12578 | 172° | 4km/h | 27639m | 7.3m/s | -45.3°C | 2.5% | 0hPa | 0V | 00:00:00 | 00:00:00 | 00:00:00 | |
| LZ4TU-5 | 2026-08-31 06:39:35 | 43.17103 | 22.12598 | 297° | 11km/h | 27081m | 8.2m/s | -45.7°C | 2.4% | 0hPa | 0V | 00:00:00 | 00:00:00 | 00:00:00 | |
| LZ4TU-5 | 2026-08-31 06:39:30 | 43.17091 | 22.12595 | 350° | 35km/h | 27048m | 7.5m/s | -45.6°C | 0% | 0hPa | 0V | 00:00:00 | 00:00:00 | 00:00:00 | |
| LZ4TU-5 | 2026-08-31 06:38:10 | 43.17016 | 22.12894 | 74° | 11km/h | 26524m | 7.2m/s | -45.5°C | 2.0% | 0hPa | 0V | 00:00:00 | 00:00:00 | 00:00:00 | |
| LZ4TU-5 | 2026-08-31 06:38:05 | 43.17007 | 22.12880 | 14° | 18km/h | 26490m | 7.1m/s | -45.7°C | 2.0% | 0hPa | 0V | 00:00:00 | 00:00:00 | 00:00:00 | |
| LZ4TU-5 | 2026-08-31 06:36:47 | 43.16820 | 22.13034 | 10° | 18km/h | 26003m | 6.3m/s | -48.3°C | 1.9% | 0hPa | 0V | 00:00:00 | 00:00:00 | 00:00:00 | |
| LZ4TU-5 | 2026-08-31 06:36:42 | 43.16811 | 22.13029 | 0° | 0km/h | 25973m | 6.9m/s | -48.5°C | 1.9% | 0hPa | 0V | 00:00:00 | 00:00:00 | 00:00:00 | |
| LZ4TU-5 | 2026-08-31 06:35:21 | 43.16653 | 22.13381 | 226° | 5km/h | 25481m | 6.5m/s | -50.0°C | 2.1% | 0hPa | 0V | 00:00:00 | 00:00:00 | 00:00:00 | |
| LZ4TU-5 | 2026-08-31 06:35:16 | 43.16647 | 22.13403 | 308° | 16km/h | 25450m | 6.9m/s | -50.1°C | 0% | 0hPa | 0V | 00:00:00 | 00:00:00 | 00:00:00 | |
| LZ4TU-5 | 2026-08-31 06:33:54 | 43.16497 | 22.13546 | 318° | 18km/h | 24923m | 5.7m/s | -50.7°C | 2.1% | 0hPa | 0V | 00:00:00 | 00:00:00 | 00:00:00 | |
| LZ4TU-5 | 2026-08-31 06:33:49 | 43.16480 | 22.13543 | 328° | 16km/h | 24889m | 6.8m/s | -50.3°C | 2.0% | 0hPa | 0V | 00:00:00 | 00:00:00 | 00:00:00 | |
| LZ4TU-5 | 2026-08-31 06:32:25 | 43.16234 | 22.13847 | 283° | 27km/h | 24370m | 5.9m/s | -51.7°C | 1.7% | 0hPa | 0V | 00:00:00 | 00:00:00 | 00:00:00 | |
| LZ4TU-5 | 2026-08-31 06:32:20 | 43.16234 | 22.13896 | 280° | 31km/h | 24339m | 5.9m/s | -51.0°C | 1.5% | 0hPa | 0V | 00:00:00 | 00:00:00 | 00:00:00 | |
| LZ4TU-5 | 2026-08-31 06:30:56 | 43.16220 | 22.14523 | 256° | 7km/h | 23843m | 6.6m/s | -52.8°C | 2.1% | 0hPa | 0V | 00:00:00 | 00:00:00 | 00:00:00 | |
| LZ4TU-5 | 2026-08-31 06:30:51 | 43.16230 | 22.14547 | 254° | 27km/h | 23813m | 4.8m/s | -53.1°C | 2.1% | 0hPa | 0V | 00:00:00 | 00:00:00 | 00:00:00 | |
| LZ4TU-5 | 2026-08-31 06:29:30 | 43.16164 | 22.14883 | 290° | 11km/h | 23326m | 6.6m/s | -53.2°C | 2.0% | 0hPa | 0V | 00:00:00 | 00:00:00 | 00:00:00 | |
| LZ4TU-5 | 2026-08-31 06:29:25 | 43.16144 | 22.14906 | 316° | 18km/h | 23297m | 4.3m/s | -53.4°C | 2.0% | 0hPa | 0V | 00:00:00 | 00:00:00 | 00:00:00 | |
| LZ4TU-5 | 2026-08-31 06:28:03 | 43.15927 | 22.15186 | 324° | 16km/h | 22795m | 6.2m/s | -52.7°C | 1.9% | 0hPa | 0V | 00:00:00 | 00:00:00 | 00:00:00 | |
| LZ4TU-5 | 2026-08-31 06:27:59 | 43.15915 | 22.15211 | 277° | 24km/h | 22772m | 6.6m/s | -52.9°C | 2.0% | 0hPa | 0V | 00:00:00 | 00:00:00 | 00:00:00 | |
| LZ4TU-5 | 2026-08-31 06:26:37 | 43.15722 | 22.15734 | 276° | 18km/h | 22276m | 4.6m/s | -54.0°C | 0% | 0hPa | 0V | 00:00:00 | 00:00:00 | 00:00:00 | |
| LZ4TU-5 | 2026-08-31 06:26:33 | 43.15719 | 22.15742 | 75° | 15km/h | 22253m | 6.5m/s | -54.3°C | 1.8% | 0hPa | 0V | 00:00:00 | 00:00:00 | 00:00:00 | |
| LZ4TU-5 | 2026-08-31 06:25:11 | 43.15653 | 22.15843 | 248° | 7km/h | 21770m | 5.4m/s | -54.9°C | 1.9% | 0hPa | 0V | 00:00:00 | 00:00:00 | 00:00:00 | |
| LZ4TU-5 | 2026-08-31 06:23:42 | 43.15847 | 22.15920 | 45° | 5km/h | 21259m | 6.5m/s | -55.2°C | 2.0% | 0hPa | 0V | 00:00:00 | 00:00:00 | 00:00:00 | |
| LZ4TU-5 | 2026-08-31 06:23:38 | 43.15845 | 22.15916 | 160° | 11km/h | 21237m | 6.0m/s | -55.3°C | 2.0% | 0hPa | 0V | 00:00:00 | 00:00:00 | 00:00:00 | |
| LZ4TU-5 | 2026-08-31 06:22:09 | 43.15895 | 22.15988 | 216° | 5km/h | 20739m | 5.9m/s | -55.1°C | 2.1% | 0hPa | 0V | 00:00:00 | 00:00:00 | 00:00:00 | |
| LZ4TU-5 | 2026-08-31 06:22:05 | 43.15909 | 22.15994 | 185° | 16km/h | 20716m | 5.4m/s | -55.0°C | 2.0% | 0hPa | 0V | 00:00:00 | 00:00:00 | 00:00:00 | |
| LZ4TU-5 | 2026-08-31 06:20:42 | 43.15907 | 22.15914 | 16° | 18km/h | 20239m | 6.2m/s | -54.8°C | 2.1% | 0hPa | 0V | 00:00:00 | 00:00:00 | 00:00:00 | |
| LZ4TU-5 | 2026-08-31 06:20:38 | 43.15894 | 22.15909 | 339° | 9km/h | 20218m | 6.1m/s | -54.9°C | 2.1% | 0hPa | 0V | 00:00:00 | 00:00:00 | 00:00:00 | |
| LZ4TU-5 | 2026-08-31 06:19:16 | 43.15861 | 22.15978 | 60° | 16km/h | 19746m | 6.0m/s | -56.6°C | 2.3% | 0hPa | 0V | 00:00:00 | 00:00:00 | 00:00:00 | |
| LZ4TU-5 | 2026-08-31 06:19:11 | 43.15866 | 22.15972 | 291° | 7km/h | 19718m | 3.8m/s | -56.5°C | 2.4% | 0hPa | 0V | 00:00:00 | 00:00:00 | 00:00:00 | |
| LZ4TU-5 | 2026-08-31 06:17:50 | 43.15692 | 22.15963 | 44° | 5km/h | 19291m | 4.8m/s | -56.5°C | 2.0% | 0hPa | 0V | 00:00:00 | 00:00:00 | 00:00:00 | |
| LZ4TU-5 | 2026-08-31 06:17:45 | 43.15690 | 22.15949 | 24° | 5km/h | 19265m | 6.4m/s | -56.4°C | 2.0% | 0hPa | 0V | 00:00:00 | 00:00:00 | 00:00:00 | |
| LZ4TU-5 | 2026-08-31 06:16:23 | 43.15582 | 22.15698 | 344° | 5km/h | 18822m | 5.5m/s | -58.0°C | 2.6% | 0hPa | 0V | 00:00:00 | 00:00:00 | 00:00:00 | |
| LZ4TU-5 | 2026-08-31 06:16:18 | 43.15570 | 22.15678 | 80° | 18km/h | 18795m | 5.0m/s | -57.8°C | 2.5% | 0hPa | 0V | 00:00:00 | 00:00:00 | 00:00:00 | |
| LZ4TU-5 | 2026-08-31 06:14:53 | 43.15532 | 22.15782 | 235° | 9km/h | 18341m | 5.0m/s | -57.3°C | 3.1% | 0hPa | 0V | 00:00:00 | 00:00:00 | 00:00:00 | |
| LZ4TU-5 | 2026-08-31 06:14:48 | 43.15534 | 22.15789 | 348° | 5km/h | 18314m | 5.0m/s | -56.9°C | 2.9% | 0hPa | 0V | 00:00:00 | 00:00:00 | 00:00:00 | |
| LZ4TU-5 | 2026-08-31 06:13:28 | 43.15632 | 22.15595 | 123° | 33km/h | 17906m | 6.0m/s | -59.8°C | 3.1% | 0hPa | 0V | 00:00:00 | 00:00:00 | 00:00:00 | |
| LZ4TU-5 | 2026-08-31 06:13:23 | 43.15647 | 22.15549 | 111° | 24km/h | 17880m | 5.9m/s | -59.6°C | 3.0% | 0hPa | 0V | 00:00:00 | 00:00:00 | 00:00:00 | |
| LZ4TU-5 | 2026-08-31 06:12:00 | 43.15779 | 22.14917 | 96° | 13km/h | 17439m | 5.2m/s | -59.4°C | 3.3% | 0hPa | 0V | 00:00:00 | 00:00:00 | 00:00:00 | |
| LZ4TU-5 | 2026-08-31 06:11:56 | 43.15789 | 22.14895 | 130° | 27km/h | 17417m | 5.2m/s | -59.3°C | 0% | 0hPa | 0V | 00:00:00 | 00:00:00 | 00:00:00 | |
| LZ4TU-5 | 2026-08-31 06:10:29 | 43.16171 | 22.14460 | 139° | 29km/h | 16954m | 4.4m/s | -59.1°C | 3.9% | 0hPa | 0V | 00:00:00 | 00:00:00 | 00:00:00 | |
| LZ4TU-5 | 2026-08-31 06:10:24 | 43.16206 | 22.14410 | 133° | 42km/h | 16927m | 4.6m/s | -59.1°C | 4.0% | 0hPa | 0V | 00:00:00 | 00:00:00 | 00:00:00 | |
| LZ4TU-5 | 2026-08-31 06:09:01 | 43.16488 | 22.13306 | 115° | 40km/h | 16511m | 4.8m/s | -59.9°C | 4.5% | 0hPa | 0V | 00:00:00 | 00:00:00 | 00:00:00 | |
| LZ4TU-5 | 2026-08-31 06:08:56 | 43.16507 | 22.13232 | 111° | 58km/h | 16487m | 5.4m/s | -60.0°C | 4.6% | 0hPa | 0V | 00:00:00 | 00:00:00 | 00:00:00 | |
| LZ4TU-5 | 2026-08-31 06:07:25 | 43.16553 | 22.11728 | 68° | 44km/h | 16043m | 3.8m/s | -61.4°C | 5.3% | 0hPa | 0V | 00:00:00 | 00:00:00 | 00:00:00 | |
| LZ4TU-5 | 2026-08-31 06:07:21 | 43.16534 | 22.11668 | 73° | 42km/h | 16024m | 5.5m/s | -61.1°C | 5.1% | 0hPa | 0V | 00:00:00 | 00:00:00 | 00:00:00 | |
| LZ4TU-5 | 2026-08-31 06:05:58 | 43.16412 | 22.10944 | 106° | 29km/h | 15562m | 4.7m/s | -59.5°C | 6.7% | 0hPa | 0V | 00:00:00 | 00:00:00 | 00:00:00 | |
| LZ4TU-5 | 2026-08-31 06:05:53 | 43.16436 | 22.10903 | 151° | 33km/h | 15537m | 5.3m/s | -59.5°C | 7.0% | 0hPa | 0V | 00:00:00 | 00:00:00 | 00:00:00 | |
| LZ4TU-5 | 2026-08-31 06:04:31 | 43.17071 | 22.10075 | 132° | 51km/h | 15124m | 5.5m/s | -59.7°C | 7.7% | 0hPa | 0V | 00:00:00 | 00:00:00 | 00:00:00 | |
| LZ4TU-5 | 2026-08-31 06:04:26 | 43.17118 | 22.10007 | 132° | 49km/h | 15099m | 4.6m/s | -59.8°C | 7.9% | 0hPa | 0V | 00:00:00 | 00:00:00 | 00:00:00 | |
| LZ4TU-5 | 2026-08-31 06:03:01 | 43.17754 | 22.08467 | 109° | 49km/h | 14690m | 5.2m/s | -59.5°C | 8.7% | 0hPa | 0V | 00:00:00 | 00:00:00 | 00:00:00 | |
| LZ4TU-5 | 2026-08-31 06:02:56 | 43.17773 | 22.08389 | 106° | 53km/h | 14666m | 5.8m/s | -59.3°C | 8.7% | 0hPa | 0V | 00:00:00 | 00:00:00 | 00:00:00 | |
| LZ4TU-5 | 2026-08-31 06:01:31 | 43.17924 | 22.07307 | 116° | 46km/h | 14257m | 5.7m/s | -58.3°C | 9.3% | 0hPa | 0V | 00:00:00 | 00:00:00 | 00:00:00 | |
| LZ4TU-5 | 2026-08-31 06:01:26 | 43.17945 | 22.07242 | 107° | 27km/h | 14233m | 5.6m/s | -58.2°C | 9.2% | 0hPa | 0V | 00:00:00 | 00:00:00 | 00:00:00 | |
| LZ4TU-5 | 2026-08-31 05:59:54 | 43.18510 | 22.06261 | 141° | 58km/h | 13745m | 3.5m/s | -56.8°C | 12.3% | 0hPa | 0V | 00:00:00 | 00:00:00 | 00:00:00 | |
| LZ4TU-5 | 2026-08-31 05:59:49 | 43.18559 | 22.06199 | 136° | 51km/h | 13723m | 4.2m/s | -56.5°C | 12.4% | 0hPa | 0V | 00:00:00 | 00:00:00 | 00:00:00 | |
| LZ4TU-5 | 2026-08-31 05:58:18 | 43.19352 | 22.05028 | 143° | 51km/h | 13295m | 5.6m/s | -56.8°C | 15.2% | 0hPa | 0V | 00:00:00 | 00:00:00 | 00:00:00 | |
| LZ4TU-5 | 2026-08-31 05:58:13 | 43.19398 | 22.04976 | 136° | 57km/h | 13273m | 4.6m/s | -57.1°C | 15.5% | 0hPa | 0V | 00:00:00 | 00:00:00 | 00:00:00 | |
| LZ4TU-5 | 2026-08-31 05:56:50 | 43.20369 | 22.03805 | 149° | 66km/h | 12881m | 5.3m/s | -57.5°C | 21.3% | 0hPa | 0V | 00:00:00 | 00:00:00 | 00:00:00 | |
| LZ4TU-5 | 2026-08-31 05:56:45 | 43.20428 | 22.03760 | 158° | 47km/h | 12857m | 4.9m/s | -57.9°C | 21.6% | 0hPa | 0V | 00:00:00 | 00:00:00 | 00:00:00 | |
| LZ4TU-5 | 2026-08-31 05:55:21 | 43.21634 | 22.03084 | 159° | 62km/h | 12461m | 5.6m/s | -56.2°C | 26.0% | 0hPa | 0V | 00:00:00 | 00:00:00 | 00:00:00 | |
| LZ4TU-5 | 2026-08-31 05:55:16 | 43.21706 | 22.03050 | 166° | 66km/h | 12439m | 4.7m/s | -56.1°C | 26.2% | 0hPa | 0V | 00:00:00 | 00:00:00 | 00:00:00 | |
| LZ4TU-5 | 2026-08-31 05:53:53 | 43.22813 | 22.02313 | 151° | 58km/h | 12044m | 4.7m/s | -54.9°C | 31.9% | 0hPa | 0V | 00:00:00 | 00:00:00 | 00:00:00 | |
| LZ4TU-5 | 2026-08-31 05:53:48 | 43.22866 | 22.02256 | 143° | 53km/h | 12020m | 4.8m/s | -54.7°C | 31.8% | 0hPa | 0V | 00:00:00 | 00:00:00 | 00:00:00 | |
| LZ4TU-5 | 2026-08-31 05:52:26 | 43.23903 | 22.01417 | 147° | 66km/h | 11645m | 5.8m/s | -52.8°C | 30.9% | 0hPa | 0V | 00:00:00 | 00:00:00 | 00:00:00 | |
| LZ4TU-5 | 2026-08-31 05:52:21 | 43.23961 | 22.01347 | 145° | 57km/h | 11618m | 6.5m/s | -52.5°C | 30.4% | 0hPa | 0V | 00:00:00 | 00:00:00 | 00:00:00 | |
| LZ4TU-5 | 2026-08-31 05:50:51 | 43.25039 | 22.00006 | 137° | 53km/h | 11163m | 4.7m/s | -49.2°C | 28.2% | 0hPa | 0V | 00:00:00 | 00:00:00 | 00:00:00 | |
| LZ4TU-5 | 2026-08-31 05:50:46 | 43.25094 | 21.99942 | 143° | 55km/h | 11140m | 4.3m/s | -49.0°C | 27.7% | 0hPa | 0V | 00:00:00 | 00:00:00 | 00:00:00 | |
| LZ4TU-5 | 2026-08-31 05:49:24 | 43.25936 | 21.98870 | 140° | 58km/h | 10772m | 4.3m/s | -46.0°C | 24.3% | 0hPa | 0V | 00:00:00 | 00:00:00 | 00:00:00 | |
| LZ4TU-5 | 2026-08-31 05:49:20 | 43.25971 | 21.98816 | 122° | 49km/h | 10754m | 4.2m/s | -45.8°C | 24.0% | 0hPa | 0V | 00:00:00 | 00:00:00 | 00:00:00 | |
| LZ4TU-5 | 2026-08-31 05:47:57 | 43.26640 | 21.97800 | 145° | 51km/h | 10377m | 4.2m/s | -42.5°C | 20.9% | 0hPa | 0V | 00:00:00 | 00:00:00 | 00:00:00 | |
| LZ4TU-5 | 2026-08-31 05:47:52 | 43.26686 | 21.97742 | 134° | 46km/h | 10355m | 4.3m/s | -42.3°C | 21.0% | 0hPa | 0V | 00:00:00 | 00:00:00 | 00:00:00 | |
| LZ4TU-5 | 2026-08-31 05:46:22 | 43.27519 | 21.96754 | 142° | 58km/h | 9924m | 5.2m/s | -38.6°C | 19.4% | 0hPa | 0V | 00:00:00 | 00:00:00 | 00:00:00 | |
| LZ4TU-5 | 2026-08-31 05:46:17 | 43.27572 | 21.96716 | 150° | 46km/h | 9899m | 4.4m/s | -38.5°C | 0% | 0hPa | 0V | 00:00:00 | 00:00:00 | 00:00:00 | |
| LZ4TU-5 | 2026-08-31 05:44:48 | 43.28383 | 21.95831 | 121° | 47km/h | 9459m | 7.0m/s | -34.6°C | 17.8% | 0hPa | 0V | 00:00:00 | 00:00:00 | 00:00:00 | |
| LZ4TU-5 | 2026-08-31 05:44:43 | 43.28419 | 21.95773 | 161° | 40km/h | 9430m | 7.0m/s | -34.4°C | 17.8% | 0hPa | 0V | 00:00:00 | 00:00:00 | 00:00:00 | |
| LZ4TU-5 | 2026-08-31 05:43:21 | 43.29218 | 21.95160 | 159° | 47km/h | 9018m | 4.0m/s | -30.8°C | 15.9% | 0hPa | 0V | 00:00:00 | 00:00:00 | 00:00:00 | |
| LZ4TU-5 | 2026-08-31 05:43:16 | 43.29266 | 21.95124 | 151° | 38km/h | 8995m | 3.7m/s | -30.6°C | 15.5% | 0hPa | 0V | 00:00:00 | 00:00:00 | 00:00:00 | |
| LZ4TU-5 | 2026-08-31 05:41:53 | 43.30043 | 21.94703 | 161° | 29km/h | 8603m | 4.7m/s | -27.9°C | 0% | 0hPa | 0V | 00:00:00 | 00:00:00 | 00:00:00 | |
| LZ4TU-5 | 2026-08-31 05:41:48 | 43.30089 | 21.94680 | 160° | 53km/h | 8579m | 4.3m/s | -27.7°C | 18.3% | 0hPa | 0V | 00:00:00 | 00:00:00 | 00:00:00 | |
| LZ4TU-5 | 2026-08-31 05:40:25 | 43.30654 | 21.94359 | 156° | 26km/h | 8147m | 4.8m/s | -24.5°C | 11.1% | 0hPa | 0V | 00:00:00 | 00:00:00 | 00:00:00 | |
| LZ4TU-5 | 2026-08-31 05:40:20 | 43.30682 | 21.94343 | 143° | 24km/h | 8121m | 4.4m/s | -24.3°C | 11.2% | 0hPa | 0V | 00:00:00 | 00:00:00 | 00:00:00 | |
| LZ4TU-5 | 2026-08-31 05:38:50 | 43.31225 | 21.93867 | 137° | 24km/h | 7656m | 3.9m/s | -20.4°C | 12.3% | 0hPa | 0V | 00:00:00 | 00:00:00 | 00:00:00 | |
| LZ4TU-5 | 2026-08-31 05:38:45 | 43.31265 | 21.93830 | 156° | 35km/h | 7635m | 3.3m/s | -20.2°C | 12.4% | 0hPa | 0V | 00:00:00 | 00:00:00 | 00:00:00 | |
| LZ4TU-5 | 2026-08-31 05:37:18 | 43.31680 | 21.93446 | 118° | 26km/h | 7209m | 5.1m/s | -16.6°C | 11.7% | 0hPa | 0V | 00:00:00 | 00:00:00 | 00:00:00 | |
| LZ4TU-5 | 2026-08-31 05:37:13 | 43.31706 | 21.93404 | 137° | 37km/h | 7183m | 6.7m/s | -16.4°C | 11.7% | 0hPa | 0V | 00:00:00 | 00:00:00 | 00:00:00 | |
| LZ4TU-5 | 2026-08-31 05:35:57 | 43.31994 | 21.93020 | 71° | 27km/h | 6788m | 2.7m/s | -13.8°C | 10.3% | 0hPa | 0V | 00:00:00 | 00:00:00 | 00:00:00 | |
| LZ4TU-5 | 2026-08-31 05:35:52 | 43.32002 | 21.93011 | 176° | 26km/h | 6758m | 6.9m/s | -13.7°C | 10.2% | 0hPa | 0V | 00:00:00 | 00:00:00 | 00:00:00 | |
| LZ4TU-5 | 2026-08-31 05:34:35 | 43.32361 | 21.92595 | 194° | 16km/h | 6338m | 4.5m/s | -10.7°C | 8.9% | 0hPa | 0V | 00:00:00 | 00:00:00 | 00:00:00 | |
| LZ4TU-5 | 2026-08-31 05:34:30 | 43.32392 | 21.92584 | 124° | 27km/h | 6307m | 5.9m/s | -10.5°C | 9.0% | 0hPa | 0V | 00:00:00 | 00:00:00 | 00:00:00 | |
| LZ4TU-5 | 2026-08-31 05:33:12 | 43.32686 | 21.92166 | 153° | 26km/h | 5883m | 6.8m/s | -9.0°C | 22.5% | 0hPa | 0V | 00:00:00 | 00:00:00 | 00:00:00 | |
| LZ4TU-5 | 2026-08-31 05:33:07 | 43.32712 | 21.92143 | 99° | 37km/h | 5854m | 6.9m/s | -9.0°C | 23.1% | 0hPa | 0V | 00:00:00 | 00:00:00 | 00:00:00 | |
| LZ4TU-5 | 2026-08-31 05:31:37 | 43.32879 | 21.91326 | 68° | 16km/h | 5353m | 5.1m/s | -6.8°C | 53.2% | 0hPa | 0V | 00:00:00 | 00:00:00 | 00:00:00 | |
| LZ4TU-5 | 2026-08-31 05:31:33 | 43.32886 | 21.91313 | 160° | 24km/h | 5328m | 3.9m/s | -6.6°C | 0% | 0hPa | 0V | 00:00:00 | 00:00:00 | 00:00:00 | |
| LZ4TU-5 | 2026-08-31 05:30:22 | 43.32948 | 21.90744 | 127° | 37km/h | 4951m | 4.2m/s | -3.6°C | 47.2% | 0hPa | 0V | 00:00:00 | 00:00:00 | 00:00:00 | |
| LZ4TU-5 | 2026-08-31 05:30:17 | 43.32969 | 21.90729 | 294° | 7km/h | 4927m | 4.8m/s | -3.5°C | 46.2% | 0hPa | 0V | 00:00:00 | 00:00:00 | 00:00:00 | |
| LZ4TU-5 | 2026-08-31 05:29:07 | 43.32937 | 21.90473 | 11° | 13km/h | 4570m | 4.6m/s | -2.7°C | 0% | 0hPa | 0V | 00:00:00 | 00:00:00 | 00:00:00 | |
| LZ4TU-5 | 2026-08-31 05:29:02 | 43.32940 | 21.90445 | 80° | 31km/h | 4542m | 5.0m/s | -2.5°C | 69.8% | 0hPa | 0V | 00:00:00 | 00:00:00 | 00:00:00 | |
| LZ4TU-5 | 2026-08-31 05:27:51 | 43.32981 | 21.89992 | 35° | 22km/h | 4182m | 6.1m/s | 0.8°C | 59.2% | 0hPa | 0V | 00:00:00 | 00:00:00 | 00:00:00 | |
| LZ4TU-5 | 2026-08-31 05:27:47 | 43.32973 | 21.89992 | 152° | 9km/h | 4164m | 5.0m/s | 0.9°C | 58.7% | 0hPa | 0V | 00:00:00 | 00:00:00 | 00:00:00 | |
| LZ4TU-5 | 2026-08-31 05:26:13 | 43.33096 | 21.89390 | 176° | 18km/h | 3677m | 6.0m/s | 3.7°C | 75.8% | 0hPa | 0V | 00:00:00 | 00:00:00 | 00:00:00 | |
| LZ4TU-5 | 2026-08-31 05:26:09 | 43.33097 | 21.89396 | 29° | 15km/h | 3658m | 4.7m/s | 3.8°C | 75.0% | 0hPa | 0V | 00:00:00 | 00:00:00 | 00:00:00 |